sensor_id;sensor_type;location;lat;lon;timestamp;P1;durP1;ratioP1;P2;durP2;ratioP2
60030;SDS011;45901;47.600;9.890;2022-11-11T00:01:26;6.77;;;2.00;;
60030;SDS011;45901;47.600;9.890;2022-11-11T00:03:53;3.60;;;2.03;;
60030;SDS011;45901;47.600;9.890;2022-11-11T00:06:22;6.03;;;2.37;;
60030;SDS011;45901;47.600;9.890;2022-11-11T00:08:49;2.80;;;1.57;;
60030;SDS011;45901;47.600;9.890;2022-11-11T00:11:17;4.20;;;1.87;;
60030;SDS011;45901;47.600;9.890;2022-11-11T00:13:44;3.10;;;1.80;;
60030;SDS011;45901;47.600;9.890;2022-11-11T00:16:12;4.30;;;1.80;;
60030;SDS011;45901;47.600;9.890;2022-11-11T00:18:42;3.80;;;2.17;;
60030;SDS011;45901;47.600;9.890;2022-11-11T00:21:29;2.73;;;1.87;;
60030;SDS011;45901;47.600;9.890;2022-11-11T00:24:21;4.37;;;2.27;;
60030;SDS011;45901;47.600;9.890;2022-11-11T00:27:08;3.13;;;1.83;;
60030;SDS011;45901;47.600;9.890;2022-11-11T00:29:37;2.90;;;1.63;;
60030;SDS011;45901;47.600;9.890;2022-11-11T00:32:05;4.93;;;2.30;;
60030;SDS011;45901;47.600;9.890;2022-11-11T00:34:52;5.30;;;2.17;;
60030;SDS011;45901;47.600;9.890;2022-11-11T00:37:35;2.20;;;1.30;;
60030;SDS011;45901;47.600;9.890;2022-11-11T00:40:03;3.03;;;1.50;;
60030;SDS011;45901;47.600;9.890;2022-11-11T00:42:31;3.40;;;1.17;;
60030;SDS011;45901;47.600;9.890;2022-11-11T00:44:59;2.80;;;1.50;;
60030;SDS011;45901;47.600;9.890;2022-11-11T00:47:27;4.40;;;1.70;;
60030;SDS011;45901;47.600;9.890;2022-11-11T00:50:12;4.17;;;1.53;;
60030;SDS011;45901;47.600;9.890;2022-11-11T00:53:01;3.23;;;1.63;;
60030;SDS011;45901;47.600;9.890;2022-11-11T00:55:29;3.27;;;1.57;;
60030;SDS011;45901;47.600;9.890;2022-11-11T00:57:56;2.70;;;1.60;;
60030;SDS011;45901;47.600;9.890;2022-11-11T01:00:24;3.47;;;1.80;;
60030;SDS011;45901;47.600;9.890;2022-11-11T01:02:51;5.07;;;2.07;;
60030;SDS011;45901;47.600;9.890;2022-11-11T01:05:18;4.37;;;1.50;;
60030;SDS011;45901;47.600;9.890;2022-11-11T01:07:47;4.37;;;1.97;;
60030;SDS011;45901;47.600;9.890;2022-11-11T01:10:17;2.87;;;1.87;;
60030;SDS011;45901;47.600;9.890;2022-11-11T01:12:59;3.87;;;1.40;;
60030;SDS011;45901;47.600;9.890;2022-11-11T01:15:37;3.40;;;1.67;;
60030;SDS011;45901;47.600;9.890;2022-11-11T01:18:04;4.67;;;2.13;;
60030;SDS011;45901;47.600;9.890;2022-11-11T01:20:32;3.47;;;1.63;;
60030;SDS011;45901;47.600;9.890;2022-11-11T01:23:01;3.60;;;1.70;;
60030;SDS011;45901;47.600;9.890;2022-11-11T01:25:33;3.23;;;1.57;;
60030;SDS011;45901;47.600;9.890;2022-11-11T01:28:00;3.67;;;1.90;;
60030;SDS011;45901;47.600;9.890;2022-11-11T01:30:27;3.53;;;1.83;;
60030;SDS011;45901;47.600;9.890;2022-11-11T01:32:56;4.30;;;1.60;;
60030;SDS011;45901;47.600;9.890;2022-11-11T01:35:24;5.00;;;1.80;;
60030;SDS011;45901;47.600;9.890;2022-11-11T01:37:51;2.47;;;1.10;;
60030;SDS011;45901;47.600;9.890;2022-11-11T01:40:19;3.27;;;0.97;;
60030;SDS011;45901;47.600;9.890;2022-11-11T01:42:48;1.87;;;1.10;;
60030;SDS011;45901;47.600;9.890;2022-11-11T01:48:16;2.63;;;1.20;;
60030;SDS011;45901;47.600;9.890;2022-11-11T01:51:09;2.00;;;1.30;;
60030;SDS011;45901;47.600;9.890;2022-11-11T01:53:45;2.57;;;1.57;;
60030;SDS011;45901;47.600;9.890;2022-11-11T01:56:17;3.20;;;1.33;;
60030;SDS011;45901;47.600;9.890;2022-11-11T01:58:46;3.90;;;1.77;;
60030;SDS011;45901;47.600;9.890;2022-11-11T02:01:14;2.53;;;1.57;;
60030;SDS011;45901;47.600;9.890;2022-11-11T02:03:43;2.63;;;1.50;;
60030;SDS011;45901;47.600;9.890;2022-11-11T02:06:33;3.27;;;1.53;;
60030;SDS011;45901;47.600;9.890;2022-11-11T02:09:00;3.47;;;1.57;;
60030;SDS011;45901;47.600;9.890;2022-11-11T02:11:29;5.10;;;1.40;;
60030;SDS011;45901;47.600;9.890;2022-11-11T02:14:18;2.80;;;1.50;;
60030;SDS011;45901;47.600;9.890;2022-11-11T02:17:01;3.93;;;1.73;;
60030;SDS011;45901;47.600;9.890;2022-11-11T02:19:31;3.43;;;1.50;;
60030;SDS011;45901;47.600;9.890;2022-11-11T02:22:08;5.63;;;1.80;;
60030;SDS011;45901;47.600;9.890;2022-11-11T02:24:44;4.97;;;1.67;;
60030;SDS011;45901;47.600;9.890;2022-11-11T02:27:12;3.30;;;1.57;;
60030;SDS011;45901;47.600;9.890;2022-11-11T02:29:42;5.13;;;1.57;;
60030;SDS011;45901;47.600;9.890;2022-11-11T02:32:15;6.23;;;2.17;;
60030;SDS011;45901;47.600;9.890;2022-11-11T02:34:42;4.93;;;2.00;;
60030;SDS011;45901;47.600;9.890;2022-11-11T02:37:10;4.70;;;1.97;;
60030;SDS011;45901;47.600;9.890;2022-11-11T02:39:41;5.77;;;2.17;;
60030;SDS011;45901;47.600;9.890;2022-11-11T02:42:13;5.13;;;1.93;;
60030;SDS011;45901;47.600;9.890;2022-11-11T02:44:42;8.57;;;2.20;;
60030;SDS011;45901;47.600;9.890;2022-11-11T02:47:09;7.73;;;2.23;;
60030;SDS011;45901;47.600;9.890;2022-11-11T02:49:36;9.73;;;2.20;;
60030;SDS011;45901;47.600;9.890;2022-11-11T02:52:04;6.20;;;2.23;;
60030;SDS011;45901;47.600;9.890;2022-11-11T02:54:31;6.73;;;2.23;;
60030;SDS011;45901;47.600;9.890;2022-11-11T02:57:00;7.63;;;2.30;;
60030;SDS011;45901;47.600;9.890;2022-11-11T02:59:33;5.03;;;1.80;;
60030;SDS011;45901;47.600;9.890;2022-11-11T03:02:02;10.47;;;2.57;;
60030;SDS011;45901;47.600;9.890;2022-11-11T03:04:30;12.23;;;2.90;;
60030;SDS011;45901;47.600;9.890;2022-11-11T03:06:57;10.37;;;3.10;;
60030;SDS011;45901;47.600;9.890;2022-11-11T03:09:25;6.97;;;2.60;;
60030;SDS011;45901;47.600;9.890;2022-11-11T03:11:52;7.63;;;2.30;;
60030;SDS011;45901;47.600;9.890;2022-11-11T03:14:21;7.53;;;2.70;;
60030;SDS011;45901;47.600;9.890;2022-11-11T03:16:48;11.00;;;2.67;;
60030;SDS011;45901;47.600;9.890;2022-11-11T03:19:33;10.07;;;2.97;;
60030;SDS011;45901;47.600;9.890;2022-11-11T03:22:00;10.97;;;2.37;;
60030;SDS011;45901;47.600;9.890;2022-11-11T03:24:27;7.73;;;2.77;;
60030;SDS011;45901;47.600;9.890;2022-11-11T03:27:09;10.33;;;2.50;;
60030;SDS011;45901;47.600;9.890;2022-11-11T03:29:38;6.17;;;2.37;;
60030;SDS011;45901;47.600;9.890;2022-11-11T03:32:07;8.93;;;2.53;;
60030;SDS011;45901;47.600;9.890;2022-11-11T03:34:34;6.70;;;2.43;;
60030;SDS011;45901;47.600;9.890;2022-11-11T03:37:02;7.10;;;2.67;;
60030;SDS011;45901;47.600;9.890;2022-11-11T03:39:48;7.87;;;2.37;;
60030;SDS011;45901;47.600;9.890;2022-11-11T03:42:16;8.57;;;2.20;;
60030;SDS011;45901;47.600;9.890;2022-11-11T03:44:44;10.40;;;3.07;;
60030;SDS011;45901;47.600;9.890;2022-11-11T03:47:12;9.07;;;2.20;;
60030;SDS011;45901;47.600;9.890;2022-11-11T03:49:40;6.57;;;2.23;;
60030;SDS011;45901;47.600;9.890;2022-11-11T03:52:10;7.23;;;2.70;;
60030;SDS011;45901;47.600;9.890;2022-11-11T03:54:38;7.70;;;2.33;;
60030;SDS011;45901;47.600;9.890;2022-11-11T03:57:05;7.30;;;2.00;;
60030;SDS011;45901;47.600;9.890;2022-11-11T03:59:51;6.63;;;2.27;;
60030;SDS011;45901;47.600;9.890;2022-11-11T04:02:18;7.93;;;2.10;;
60030;SDS011;45901;47.600;9.890;2022-11-11T04:05:03;8.73;;;2.10;;
60030;SDS011;45901;47.600;9.890;2022-11-11T04:07:49;6.13;;;2.20;;
60030;SDS011;45901;47.600;9.890;2022-11-11T04:10:33;6.17;;;1.83;;
60030;SDS011;45901;47.600;9.890;2022-11-11T04:13:01;6.57;;;1.90;;
60030;SDS011;45901;47.600;9.890;2022-11-11T04:15:48;4.53;;;1.63;;
60030;SDS011;45901;47.600;9.890;2022-11-11T04:18:34;5.40;;;1.53;;
60030;SDS011;45901;47.600;9.890;2022-11-11T04:21:20;4.60;;;1.30;;
60030;SDS011;45901;47.600;9.890;2022-11-11T04:24:05;7.17;;;1.60;;
60030;SDS011;45901;47.600;9.890;2022-11-11T04:26:47;4.80;;;1.60;;
60030;SDS011;45901;47.600;9.890;2022-11-11T04:29:15;7.93;;;2.27;;
60030;SDS011;45901;47.600;9.890;2022-11-11T04:31:54;5.87;;;1.33;;
60030;SDS011;45901;47.600;9.890;2022-11-11T04:34:41;9.33;;;2.57;;
60030;SDS011;45901;47.600;9.890;2022-11-11T04:37:09;6.17;;;2.33;;
60030;SDS011;45901;47.600;9.890;2022-11-11T04:39:37;16.53;;;3.90;;
60030;SDS011;45901;47.600;9.890;2022-11-11T04:42:21;19.80;;;4.97;;
60030;SDS011;45901;47.600;9.890;2022-11-11T04:44:49;17.60;;;4.10;;
60030;SDS011;45901;47.600;9.890;2022-11-11T04:47:36;10.63;;;3.30;;
60030;SDS011;45901;47.600;9.890;2022-11-11T04:50:04;10.70;;;3.67;;
60030;SDS011;45901;47.600;9.890;2022-11-11T04:52:32;11.97;;;3.83;;
60030;SDS011;45901;47.600;9.890;2022-11-11T04:54:59;9.30;;;3.70;;
60030;SDS011;45901;47.600;9.890;2022-11-11T04:57:44;12.47;;;4.27;;
60030;SDS011;45901;47.600;9.890;2022-11-11T05:00:13;11.67;;;3.70;;
60030;SDS011;45901;47.600;9.890;2022-11-11T05:02:44;12.17;;;3.77;;
60030;SDS011;45901;47.600;9.890;2022-11-11T05:05:29;10.83;;;3.90;;
60030;SDS011;45901;47.600;9.890;2022-11-11T05:08:17;9.93;;;3.20;;
60030;SDS011;45901;47.600;9.890;2022-11-11T05:11:05;9.50;;;3.13;;
60030;SDS011;45901;47.600;9.890;2022-11-11T05:13:32;7.97;;;2.93;;
60030;SDS011;45901;47.600;9.890;2022-11-11T05:16:19;11.73;;;3.30;;
60030;SDS011;45901;47.600;9.890;2022-11-11T05:19:11;11.63;;;2.97;;
60030;SDS011;45901;47.600;9.890;2022-11-11T05:21:59;8.07;;;2.60;;
60030;SDS011;45901;47.600;9.890;2022-11-11T05:24:32;6.03;;;2.50;;
60030;SDS011;45901;47.600;9.890;2022-11-11T05:27:18;9.33;;;2.70;;
60030;SDS011;45901;47.600;9.890;2022-11-11T05:29:46;6.97;;;2.47;;
60030;SDS011;45901;47.600;9.890;2022-11-11T05:32:15;6.50;;;2.23;;
60030;SDS011;45901;47.600;9.890;2022-11-11T05:34:45;6.07;;;2.47;;
60030;SDS011;45901;47.600;9.890;2022-11-11T05:37:13;6.07;;;2.53;;
60030;SDS011;45901;47.600;9.890;2022-11-11T05:39:41;7.27;;;2.30;;
60030;SDS011;45901;47.600;9.890;2022-11-11T05:42:08;4.10;;;1.73;;
60030;SDS011;45901;47.600;9.890;2022-11-11T05:44:36;4.27;;;1.60;;
60030;SDS011;45901;47.600;9.890;2022-11-11T05:47:03;5.37;;;1.20;;
60030;SDS011;45901;47.600;9.890;2022-11-11T05:49:31;4.20;;;1.50;;
60030;SDS011;45901;47.600;9.890;2022-11-11T05:52:00;4.03;;;1.40;;
60030;SDS011;45901;47.600;9.890;2022-11-11T05:54:27;7.93;;;2.10;;
60030;SDS011;45901;47.600;9.890;2022-11-11T05:56:54;5.67;;;2.47;;
60030;SDS011;45901;47.600;9.890;2022-11-11T05:59:22;6.80;;;2.40;;
60030;SDS011;45901;47.600;9.890;2022-11-11T06:01:49;6.07;;;3.00;;
60030;SDS011;45901;47.600;9.890;2022-11-11T06:04:16;5.37;;;2.33;;
60030;SDS011;45901;47.600;9.890;2022-11-11T06:06:44;7.37;;;3.13;;
60030;SDS011;45901;47.600;9.890;2022-11-11T06:09:12;11.53;;;3.77;;
60030;SDS011;45901;47.600;9.890;2022-11-11T06:11:40;12.73;;;4.60;;
60030;SDS011;45901;47.600;9.890;2022-11-11T06:14:07;21.60;;;5.50;;
60030;SDS011;45901;47.600;9.890;2022-11-11T06:16:35;25.27;;;5.53;;
60030;SDS011;45901;47.600;9.890;2022-11-11T06:19:02;36.73;;;7.53;;
60030;SDS011;45901;47.600;9.890;2022-11-11T06:21:29;20.17;;;6.30;;
60030;SDS011;45901;47.600;9.890;2022-11-11T06:24:18;18.20;;;6.13;;
60030;SDS011;45901;47.600;9.890;2022-11-11T06:26:46;27.07;;;8.03;;
60030;SDS011;45901;47.600;9.890;2022-11-11T06:29:13;22.63;;;8.77;;
60030;SDS011;45901;47.600;9.890;2022-11-11T06:31:40;21.70;;;9.50;;
60030;SDS011;45901;47.600;9.890;2022-11-11T06:34:09;34.10;;;12.00;;
60030;SDS011;45901;47.600;9.890;2022-11-11T06:36:36;35.13;;;13.33;;
60030;SDS011;45901;47.600;9.890;2022-11-11T06:39:04;31.37;;;11.43;;
60030;SDS011;45901;47.600;9.890;2022-11-11T06:41:32;88.07;;;13.23;;
60030;SDS011;45901;47.600;9.890;2022-11-11T06:44:00;24.00;;;11.57;;
60030;SDS011;45901;47.600;9.890;2022-11-11T06:46:27;22.73;;;11.97;;
60030;SDS011;45901;47.600;9.890;2022-11-11T06:48:54;26.53;;;11.97;;
60030;SDS011;45901;47.600;9.890;2022-11-11T06:51:21;29.17;;;11.97;;
60030;SDS011;45901;47.600;9.890;2022-11-11T06:53:49;26.13;;;12.47;;
60030;SDS011;45901;47.600;9.890;2022-11-11T06:56:16;19.53;;;11.30;;
60030;SDS011;45901;47.600;9.890;2022-11-11T06:58:45;27.73;;;13.13;;
60030;SDS011;45901;47.600;9.890;2022-11-11T07:01:12;27.40;;;14.13;;
60030;SDS011;45901;47.600;9.890;2022-11-11T07:03:40;21.80;;;13.77;;
60030;SDS011;45901;47.600;9.890;2022-11-11T07:06:07;70.80;;;15.20;;
60030;SDS011;45901;47.600;9.890;2022-11-11T07:08:34;32.57;;;14.50;;
60030;SDS011;45901;47.600;9.890;2022-11-11T07:11:01;24.57;;;14.07;;
60030;SDS011;45901;47.600;9.890;2022-11-11T07:13:29;34.40;;;13.73;;
60030;SDS011;45901;47.600;9.890;2022-11-11T07:15:58;48.73;;;14.20;;
60030;SDS011;45901;47.600;9.890;2022-11-11T07:18:25;18.67;;;10.03;;
60030;SDS011;45901;47.600;9.890;2022-11-11T07:20:52;30.70;;;11.20;;
60030;SDS011;45901;47.600;9.890;2022-11-11T07:23:20;51.00;;;10.80;;
60030;SDS011;45901;47.600;9.890;2022-11-11T07:25:47;46.37;;;11.73;;
60030;SDS011;45901;47.600;9.890;2022-11-11T07:28:14;67.83;;;11.57;;
60030;SDS011;45901;47.600;9.890;2022-11-11T07:30:42;36.83;;;11.67;;
60030;SDS011;45901;47.600;9.890;2022-11-11T07:33:10;80.00;;;10.87;;
60030;SDS011;45901;47.600;9.890;2022-11-11T07:35:38;60.53;;;12.10;;
60030;SDS011;45901;47.600;9.890;2022-11-11T07:38:05;86.13;;;13.80;;
60030;SDS011;45901;47.600;9.890;2022-11-11T07:40:32;29.03;;;12.50;;
60030;SDS011;45901;47.600;9.890;2022-11-11T07:42:59;45.40;;;14.50;;
60030;SDS011;45901;47.600;9.890;2022-11-11T07:45:27;20.97;;;12.00;;
60030;SDS011;45901;47.600;9.890;2022-11-11T07:47:54;42.97;;;14.47;;
60030;SDS011;45901;47.600;9.890;2022-11-11T07:50:22;31.47;;;14.07;;
60030;SDS011;45901;47.600;9.890;2022-11-11T07:52:50;25.13;;;12.87;;
60030;SDS011;45901;47.600;9.890;2022-11-11T07:55:17;29.07;;;14.07;;
60030;SDS011;45901;47.600;9.890;2022-11-11T07:57:50;30.20;;;13.90;;
60030;SDS011;45901;47.600;9.890;2022-11-11T08:00:17;31.00;;;13.97;;
60030;SDS011;45901;47.600;9.890;2022-11-11T08:02:45;27.90;;;13.70;;
60030;SDS011;45901;47.600;9.890;2022-11-11T08:05:13;27.83;;;14.13;;
60030;SDS011;45901;47.600;9.890;2022-11-11T08:07:42;29.57;;;14.30;;
60030;SDS011;45901;47.600;9.890;2022-11-11T08:10:09;27.40;;;12.80;;
60030;SDS011;45901;47.600;9.890;2022-11-11T08:12:38;22.77;;;11.47;;
60030;SDS011;45901;47.600;9.890;2022-11-11T08:15:22;19.83;;;11.03;;
60030;SDS011;45901;47.600;9.890;2022-11-11T08:17:50;20.03;;;10.80;;
60030;SDS011;45901;47.600;9.890;2022-11-11T08:20:17;19.93;;;10.20;;
60030;SDS011;45901;47.600;9.890;2022-11-11T08:22:46;19.47;;;11.20;;
60030;SDS011;45901;47.600;9.890;2022-11-11T08:25:14;19.47;;;9.83;;
60030;SDS011;45901;47.600;9.890;2022-11-11T08:27:41;10.83;;;7.03;;
60030;SDS011;45901;47.600;9.890;2022-11-11T08:30:09;9.23;;;5.33;;
60030;SDS011;45901;47.600;9.890;2022-11-11T08:32:37;5.63;;;3.23;;
60030;SDS011;45901;47.600;9.890;2022-11-11T08:35:04;4.50;;;3.10;;
60030;SDS011;45901;47.600;9.890;2022-11-11T08:37:32;4.53;;;3.00;;
60030;SDS011;45901;47.600;9.890;2022-11-11T08:40:02;2.50;;;2.17;;
60030;SDS011;45901;47.600;9.890;2022-11-11T08:42:30;6.07;;;2.17;;
60030;SDS011;45901;47.600;9.890;2022-11-11T08:44:58;2.33;;;1.60;;
60030;SDS011;45901;47.600;9.890;2022-11-11T08:47:25;2.33;;;1.73;;
60030;SDS011;45901;47.600;9.890;2022-11-11T08:49:58;2.53;;;1.53;;
60030;SDS011;45901;47.600;9.890;2022-11-11T08:53:16;2.47;;;1.77;;
60030;SDS011;45901;47.600;9.890;2022-11-11T08:58:40;4.37;;;1.70;;
60030;SDS011;45901;47.600;9.890;2022-11-11T09:01:11;2.50;;;1.57;;
60030;SDS011;45901;47.600;9.890;2022-11-11T09:03:51;4.53;;;2.03;;
60030;SDS011;45901;47.600;9.890;2022-11-11T09:06:20;4.73;;;2.33;;
60030;SDS011;45901;47.600;9.890;2022-11-11T09:09:08;5.23;;;2.60;;
60030;SDS011;45901;47.600;9.890;2022-11-11T09:11:39;7.10;;;3.23;;
60030;SDS011;45901;47.600;9.890;2022-11-11T09:14:10;6.93;;;3.97;;
60030;SDS011;45901;47.600;9.890;2022-11-11T09:16:49;6.83;;;3.93;;
60030;SDS011;45901;47.600;9.890;2022-11-11T09:19:25;6.73;;;4.67;;
60030;SDS011;45901;47.600;9.890;2022-11-11T09:21:56;6.40;;;4.43;;
60030;SDS011;45901;47.600;9.890;2022-11-11T09:24:23;7.90;;;4.83;;
60030;SDS011;45901;47.600;9.890;2022-11-11T09:26:52;8.53;;;5.13;;
60030;SDS011;45901;47.600;9.890;2022-11-11T09:29:19;11.30;;;5.40;;
60030;SDS011;45901;47.600;9.890;2022-11-11T09:31:50;8.60;;;5.53;;
60030;SDS011;45901;47.600;9.890;2022-11-11T09:34:17;6.23;;;3.80;;
60030;SDS011;45901;47.600;9.890;2022-11-11T09:36:44;3.27;;;2.50;;
60030;SDS011;45901;47.600;9.890;2022-11-11T09:39:11;3.07;;;2.50;;
60030;SDS011;45901;47.600;9.890;2022-11-11T09:41:42;3.70;;;2.67;;
60030;SDS011;45901;47.600;9.890;2022-11-11T09:44:29;5.33;;;3.20;;
60030;SDS011;45901;47.600;9.890;2022-11-11T09:47:23;5.23;;;3.47;;
60030;SDS011;45901;47.600;9.890;2022-11-11T09:50:01;5.23;;;4.30;;
60030;SDS011;45901;47.600;9.890;2022-11-11T09:52:30;5.73;;;4.50;;
60030;SDS011;45901;47.600;9.890;2022-11-11T09:55:03;6.53;;;4.57;;
60030;SDS011;45901;47.600;9.890;2022-11-11T09:57:42;5.40;;;4.30;;
60030;SDS011;45901;47.600;9.890;2022-11-11T10:00:17;6.17;;;4.57;;
60030;SDS011;45901;47.600;9.890;2022-11-11T10:02:49;7.37;;;5.53;;
60030;SDS011;45901;47.600;9.890;2022-11-11T10:05:21;7.47;;;6.10;;
60030;SDS011;45901;47.600;9.890;2022-11-11T10:07:53;7.47;;;5.60;;
60030;SDS011;45901;47.600;9.890;2022-11-11T10:10:26;8.87;;;5.60;;
60030;SDS011;45901;47.600;9.890;2022-11-11T10:13:07;8.97;;;4.63;;
60030;SDS011;45901;47.600;9.890;2022-11-11T10:15:46;5.80;;;4.70;;
60030;SDS011;45901;47.600;9.890;2022-11-11T10:18:46;8.83;;;5.53;;
60030;SDS011;45901;47.600;9.890;2022-11-11T10:24:58;6.97;;;4.50;;
60030;SDS011;45901;47.600;9.890;2022-11-11T10:27:41;5.40;;;3.70;;
60030;SDS011;45901;47.600;9.890;2022-11-11T10:30:15;4.27;;;2.93;;
60030;SDS011;45901;47.600;9.890;2022-11-11T10:33:03;3.80;;;2.70;;
60030;SDS011;45901;47.600;9.890;2022-11-11T10:35:52;4.00;;;2.63;;
60030;SDS011;45901;47.600;9.890;2022-11-11T10:38:31;2.70;;;2.03;;
60030;SDS011;45901;47.600;9.890;2022-11-11T10:41:18;2.40;;;2.00;;
60030;SDS011;45901;47.600;9.890;2022-11-11T10:43:51;3.23;;;1.90;;
60030;SDS011;45901;47.600;9.890;2022-11-11T10:46:31;4.50;;;2.10;;
60030;SDS011;45901;47.600;9.890;2022-11-11T10:49:06;6.57;;;2.33;;
60030;SDS011;45901;47.600;9.890;2022-11-11T10:51:54;3.30;;;2.40;;
60030;SDS011;45901;47.600;9.890;2022-11-11T10:54:31;3.03;;;1.93;;
60030;SDS011;45901;47.600;9.890;2022-11-11T10:57:18;1.93;;;1.33;;
60030;SDS011;45901;47.600;9.890;2022-11-11T11:00:15;2.60;;;1.00;;
60030;SDS011;45901;47.600;9.890;2022-11-11T11:03:15;1.57;;;1.00;;
60030;SDS011;45901;47.600;9.890;2022-11-11T11:05:57;1.43;;;0.90;;
60030;SDS011;45901;47.600;9.890;2022-11-11T11:08:33;3.33;;;1.13;;
60030;SDS011;45901;47.600;9.890;2022-11-11T11:11:10;1.57;;;0.80;;
60030;SDS011;45901;47.600;9.890;2022-11-11T11:13:45;1.70;;;1.10;;
60030;SDS011;45901;47.600;9.890;2022-11-11T11:16:19;1.57;;;1.10;;
60030;SDS011;45901;47.600;9.890;2022-11-11T11:21:51;1.63;;;0.90;;
60030;SDS011;45901;47.600;9.890;2022-11-11T11:24:25;1.40;;;0.90;;
60030;SDS011;45901;47.600;9.890;2022-11-11T11:27:09;1.83;;;1.00;;
60030;SDS011;45901;47.600;9.890;2022-11-11T11:30:52;1.10;;;0.90;;
60030;SDS011;45901;47.600;9.890;2022-11-11T11:33:52;1.57;;;0.83;;
60030;SDS011;45901;47.600;9.890;2022-11-11T11:36:33;4.60;;;1.20;;
60030;SDS011;45901;47.600;9.890;2022-11-11T11:39:16;3.37;;;0.87;;
60030;SDS011;45901;47.600;9.890;2022-11-11T11:42:07;1.67;;;0.67;;
60030;SDS011;45901;47.600;9.890;2022-11-11T11:44:57;1.10;;;0.70;;
60030;SDS011;45901;47.600;9.890;2022-11-11T11:48:05;1.70;;;0.80;;
60030;SDS011;45901;47.600;9.890;2022-11-11T11:51:23;1.03;;;0.77;;
60030;SDS011;45901;47.600;9.890;2022-11-11T11:57:40;2.37;;;1.10;;
60030;SDS011;45901;47.600;9.890;2022-11-11T12:00:45;1.60;;;1.00;;
60030;SDS011;45901;47.600;9.890;2022-11-11T12:07:03;1.87;;;1.30;;
60030;SDS011;45901;47.600;9.890;2022-11-11T12:09:58;2.00;;;1.30;;
60030;SDS011;45901;47.600;9.890;2022-11-11T12:12:43;2.43;;;1.10;;
60030;SDS011;45901;47.600;9.890;2022-11-11T12:15:26;1.63;;;1.10;;
60030;SDS011;45901;47.600;9.890;2022-11-11T12:18:07;1.03;;;0.93;;
60030;SDS011;45901;47.600;9.890;2022-11-11T12:21:14;3.43;;;1.00;;
60030;SDS011;45901;47.600;9.890;2022-11-11T12:24:05;2.07;;;1.33;;
60030;SDS011;45901;47.600;9.890;2022-11-11T12:26:53;1.60;;;1.17;;
60030;SDS011;45901;47.600;9.890;2022-11-11T12:29:39;2.27;;;1.10;;
60030;SDS011;45901;47.600;9.890;2022-11-11T12:32:33;1.67;;;1.20;;
60030;SDS011;45901;47.600;9.890;2022-11-11T12:35:38;3.10;;;1.40;;
60030;SDS011;45901;47.600;9.890;2022-11-11T12:41:38;3.10;;;1.40;;
60030;SDS011;45901;47.600;9.890;2022-11-11T12:44:19;5.73;;;1.27;;
60030;SDS011;45901;47.600;9.890;2022-11-11T12:47:18;2.97;;;1.40;;
60030;SDS011;45901;47.600;9.890;2022-11-11T12:50:02;3.53;;;1.10;;
60030;SDS011;45901;47.600;9.890;2022-11-11T12:52:48;2.33;;;1.40;;
60030;SDS011;45901;47.600;9.890;2022-11-11T12:55:50;2.60;;;1.20;;
60030;SDS011;45901;47.600;9.890;2022-11-11T12:58:45;2.30;;;1.07;;
60030;SDS011;45901;47.600;9.890;2022-11-11T13:01:30;1.47;;;0.90;;
60030;SDS011;45901;47.600;9.890;2022-11-11T13:04:24;1.30;;;1.00;;
60030;SDS011;45901;47.600;9.890;2022-11-11T13:07:09;1.90;;;0.80;;
60030;SDS011;45901;47.600;9.890;2022-11-11T13:10:02;1.77;;;1.17;;
60030;SDS011;45901;47.600;9.890;2022-11-11T13:12:48;3.57;;;1.20;;
60030;SDS011;45901;47.600;9.890;2022-11-11T13:15:23;2.10;;;0.80;;
60030;SDS011;45901;47.600;9.890;2022-11-11T13:17:54;1.97;;;0.90;;
60030;SDS011;45901;47.600;9.890;2022-11-11T13:20:39;2.03;;;1.00;;
60030;SDS011;45901;47.600;9.890;2022-11-11T13:23:11;1.40;;;0.90;;
60030;SDS011;45901;47.600;9.890;2022-11-11T13:25:39;1.13;;;0.80;;
60030;SDS011;45901;47.600;9.890;2022-11-11T13:28:13;2.20;;;1.30;;
60030;SDS011;45901;47.600;9.890;2022-11-11T13:30:58;3.20;;;0.97;;
60030;SDS011;45901;47.600;9.890;2022-11-11T13:33:42;2.13;;;1.20;;
60030;SDS011;45901;47.600;9.890;2022-11-11T13:36:13;2.40;;;1.77;;
60030;SDS011;45901;47.600;9.890;2022-11-11T13:38:44;7.07;;;4.10;;
60030;SDS011;45901;47.600;9.890;2022-11-11T13:41:18;4.90;;;3.83;;
60030;SDS011;45901;47.600;9.890;2022-11-11T13:43:51;6.57;;;4.30;;
60030;SDS011;45901;47.600;9.890;2022-11-11T13:46:30;5.90;;;4.43;;
60030;SDS011;45901;47.600;9.890;2022-11-11T13:49:03;6.90;;;4.30;;
60030;SDS011;45901;47.600;9.890;2022-11-11T13:51:35;7.37;;;4.43;;
60030;SDS011;45901;47.600;9.890;2022-11-11T13:54:20;6.10;;;4.60;;
60030;SDS011;45901;47.600;9.890;2022-11-11T13:56:51;5.90;;;4.00;;
60030;SDS011;45901;47.600;9.890;2022-11-11T13:59:27;7.43;;;4.80;;
60030;SDS011;45901;47.600;9.890;2022-11-11T14:02:17;5.27;;;3.97;;
60030;SDS011;45901;47.600;9.890;2022-11-11T14:05:18;5.37;;;4.17;;
60030;SDS011;45901;47.600;9.890;2022-11-11T14:07:54;6.70;;;4.00;;
60030;SDS011;45901;47.600;9.890;2022-11-11T14:13:35;5.93;;;4.30;;
60030;SDS011;45901;47.600;9.890;2022-11-11T14:16:12;7.00;;;4.37;;
60030;SDS011;45901;47.600;9.890;2022-11-11T14:19:28;8.83;;;5.00;;
60030;SDS011;45901;47.600;9.890;2022-11-11T14:21:59;7.13;;;4.13;;
60030;SDS011;45901;47.600;9.890;2022-11-11T14:24:30;6.43;;;4.77;;
60030;SDS011;45901;47.600;9.890;2022-11-11T14:27:03;7.90;;;5.17;;
60030;SDS011;45901;47.600;9.890;2022-11-11T14:29:46;5.60;;;4.10;;
60030;SDS011;45901;47.600;9.890;2022-11-11T14:35:14;5.77;;;3.90;;
60030;SDS011;45901;47.600;9.890;2022-11-11T14:37:58;5.47;;;3.67;;
60030;SDS011;45901;47.600;9.890;2022-11-11T14:40:40;7.93;;;3.97;;
60030;SDS011;45901;47.600;9.890;2022-11-11T14:46:04;4.73;;;3.63;;
60030;SDS011;45901;47.600;9.890;2022-11-11T14:48:50;12.90;;;5.87;;
60030;SDS011;45901;47.600;9.890;2022-11-11T14:51:44;9.87;;;4.37;;
60030;SDS011;45901;47.600;9.890;2022-11-11T14:57:19;9.03;;;5.00;;
60030;SDS011;45901;47.600;9.890;2022-11-11T14:59:52;12.50;;;5.80;;
60030;SDS011;45901;47.600;9.890;2022-11-11T15:02:27;8.37;;;5.57;;
60030;SDS011;45901;47.600;9.890;2022-11-11T15:04:59;9.00;;;5.57;;
60030;SDS011;45901;47.600;9.890;2022-11-11T15:07:44;8.43;;;6.13;;
60030;SDS011;45901;47.600;9.890;2022-11-11T15:11:03;7.30;;;4.53;;
60030;SDS011;45901;47.600;9.890;2022-11-11T15:16:59;6.10;;;4.37;;
60030;SDS011;45901;47.600;9.890;2022-11-11T15:20:00;5.77;;;4.10;;
60030;SDS011;45901;47.600;9.890;2022-11-11T15:26:09;8.93;;;5.13;;
60030;SDS011;45901;47.600;9.890;2022-11-11T15:32:21;6.43;;;4.40;;
60030;SDS011;45901;47.600;9.890;2022-11-11T15:35:06;7.23;;;4.40;;
60030;SDS011;45901;47.600;9.890;2022-11-11T15:37:59;5.60;;;4.30;;
60030;SDS011;45901;47.600;9.890;2022-11-11T15:40:47;7.40;;;4.67;;
60030;SDS011;45901;47.600;9.890;2022-11-11T15:43:25;5.90;;;4.20;;
60030;SDS011;45901;47.600;9.890;2022-11-11T15:45:59;5.93;;;4.30;;
60030;SDS011;45901;47.600;9.890;2022-11-11T15:48:29;7.53;;;5.63;;
60030;SDS011;45901;47.600;9.890;2022-11-11T15:51:15;8.73;;;6.10;;
60030;SDS011;45901;47.600;9.890;2022-11-11T15:57:22;12.90;;;8.33;;
60030;SDS011;45901;47.600;9.890;2022-11-11T15:59:53;10.43;;;7.50;;
60030;SDS011;45901;47.600;9.890;2022-11-11T16:02:22;9.13;;;6.80;;
60030;SDS011;45901;47.600;9.890;2022-11-11T16:04:54;8.00;;;6.23;;
60030;SDS011;45901;47.600;9.890;2022-11-11T16:07:23;7.20;;;4.50;;
60030;SDS011;45901;47.600;9.890;2022-11-11T16:09:56;7.40;;;4.80;;
60030;SDS011;45901;47.600;9.890;2022-11-11T16:12:27;8.03;;;5.73;;
60030;SDS011;45901;47.600;9.890;2022-11-11T16:15:18;6.23;;;4.37;;
60030;SDS011;45901;47.600;9.890;2022-11-11T16:17:49;6.70;;;4.87;;
60030;SDS011;45901;47.600;9.890;2022-11-11T16:20:21;11.63;;;4.63;;
60030;SDS011;45901;47.600;9.890;2022-11-11T16:22:56;6.93;;;4.33;;